createdAt,value
2017-05-06T00:00:15.201Z,0
2017-05-06T00:01:15.226Z,0
2017-05-06T00:02:15.254Z,0
2017-05-06T00:03:15.852Z,0
2017-05-06T00:04:15.633Z,0
2017-05-06T00:05:15.646Z,0
2017-05-06T00:06:15.688Z,0
2017-05-06T00:07:15.083Z,0
2017-05-06T00:08:15.741Z,0
2017-05-06T00:09:15.767Z,0
2017-05-06T00:10:15.474Z,0
2017-05-06T00:11:15.502Z,0
2017-05-06T00:12:15.850Z,0
2017-05-06T00:13:15.563Z,0
2017-05-06T00:14:15.275Z,0
2017-05-06T00:15:15.613Z,0
2017-05-06T00:16:15.957Z,0
2017-05-06T00:17:15.986Z,0
2017-05-06T00:18:16.017Z,0
2017-05-06T00:19:15.733Z,0
2017-05-06T00:20:16.062Z,0
2017-05-06T00:21:15.766Z,0
2017-05-06T00:22:15.805Z,0
2017-05-06T00:23:15.837Z,0
2017-05-06T00:24:15.850Z,0
2017-05-06T00:25:15.893Z,0
2017-05-06T00:26:16.229Z,0
2017-05-06T00:27:16.265Z,0
2017-05-06T00:28:15.999Z,0
2017-05-06T00:29:16.000Z,0
2017-05-06T00:30:16.345Z,0
2017-05-06T00:31:16.394Z,0
2017-05-06T00:32:16.402Z,0
2017-05-06T00:33:16.106Z,0
2017-05-06T00:34:16.451Z,0
2017-05-06T00:35:15.838Z,0
2017-05-06T00:36:16.175Z,0
2017-05-06T00:37:16.549Z,0
2017-05-06T00:38:16.243Z,0
2017-05-06T00:39:16.855Z,0
2017-05-06T00:40:16.304Z,0
2017-05-06T00:41:16.324Z,0
2017-05-06T00:42:16.348Z,0
2017-05-06T00:43:16.709Z,0
2017-05-06T00:44:16.970Z,0
2017-05-06T00:45:16.128Z,0
2017-05-06T00:46:16.453Z,0
2017-05-06T00:47:16.538Z,0
2017-05-06T00:48:16.528Z,0
2017-05-06T00:49:17.113Z,0
2017-05-06T00:50:16.886Z,0
2017-05-06T00:51:16.596Z,0
2017-05-06T00:52:16.945Z,0
2017-05-06T00:53:16.661Z,0
2017-05-06T00:54:17.246Z,0
2017-05-06T00:55:16.708Z,0
2017-05-06T00:56:17.047Z,0
2017-05-06T00:57:17.096Z,0
2017-05-06T00:58:17.109Z,0
2017-05-06T00:59:17.071Z,0
2017-05-06T01:00:16.850Z,0
2017-05-06T01:01:16.871Z,0
2017-05-06T01:02:17.224Z,0
2017-05-06T01:03:16.926Z,0
2017-05-06T01:04:17.218Z,0
2017-05-06T01:05:16.986Z,0
2017-05-06T01:06:16.703Z,0
2017-05-06T01:07:17.357Z,0
2017-05-06T01:08:17.069Z,0
2017-05-06T01:09:17.334Z,0
2017-05-06T01:10:17.114Z,0
2017-05-06T01:11:17.156Z,0
2017-05-06T01:12:17.512Z,0
2017-05-06T01:13:17.525Z,0
2017-05-06T01:14:17.790Z,0
2017-05-06T01:15:17.570Z,0
2017-05-06T01:16:16.971Z,0
2017-05-06T01:17:17.632Z,0
2017-05-06T01:18:17.661Z,0
2017-05-06T01:19:17.944Z,0
2017-05-06T01:20:17.709Z,0
2017-05-06T01:21:17.728Z,0
2017-05-06T01:22:17.135Z,0
2017-05-06T01:23:17.472Z,0
2017-05-06T01:24:17.789Z,0
2017-05-06T01:25:17.527Z,0
2017-05-06T01:26:17.242Z,0
2017-05-06T01:27:17.588Z,0
2017-05-06T01:28:17.928Z,0
2017-05-06T01:29:17.901Z,0
2017-05-06T01:30:17.973Z,0
2017-05-06T01:31:18.010Z,0
2017-05-06T01:32:17.407Z,0
2017-05-06T01:33:18.067Z,0
2017-05-06T01:34:18.024Z,0
2017-05-06T01:35:18.117Z,0
2017-05-06T01:36:18.155Z,0
2017-05-06T01:37:17.859Z,0
2017-05-06T01:38:18.230Z,0
2017-05-06T01:39:18.496Z,0
2017-05-06T01:40:18.258Z,0
2017-05-06T01:41:17.650Z,0
2017-05-06T01:42:18.315Z,0
2017-05-06T01:43:18.339Z,0
2017-05-06T01:44:18.301Z,0
2017-05-06T01:45:18.386Z,0
2017-05-06T01:46:18.099Z,0
2017-05-06T01:47:18.438Z,0
2017-05-06T01:48:18.475Z,0
2017-05-06T01:49:18.751Z,0
2017-05-06T01:50:18.525Z,0
2017-05-06T01:51:18.549Z,0
2017-05-06T01:52:17.947Z,0
2017-05-06T01:53:18.289Z,0
2017-05-06T01:54:18.923Z,0
2017-05-06T01:55:18.037Z,0
2017-05-06T01:56:18.374Z,0
2017-05-06T01:57:18.719Z,0
2017-05-06T01:58:18.427Z,0
2017-05-06T01:59:18.136Z,0
2017-05-06T02:00:18.480Z,0
2017-05-06T02:01:18.512Z,0
2017-05-06T02:02:18.539Z,0
2017-05-06T02:03:18.878Z,0
2017-05-06T02:04:18.614Z,0
2017-05-06T02:05:18.621Z,0
2017-05-06T02:06:18.644Z,0
2017-05-06T02:07:18.674Z,0
2017-05-06T02:08:18.699Z,0
2017-05-06T02:09:19.044Z,0
2017-05-06T02:10:19.060Z,0
2017-05-06T02:11:18.779Z,0
2017-05-06T02:12:19.114Z,0
2017-05-06T02:13:19.146Z,0
2017-05-06T02:14:18.859Z,0
2017-05-06T02:15:18.567Z,0
2017-05-06T02:16:18.910Z,0
2017-05-06T02:17:19.259Z,0
2017-05-06T02:18:18.966Z,0
2017-05-06T02:19:19.319Z,0
2017-05-06T02:20:18.393Z,0
2017-05-06T02:21:19.054Z,0
2017-05-06T02:22:19.389Z,0
2017-05-06T02:23:19.434Z,0
2017-05-06T02:24:19.451Z,0
2017-05-06T02:25:19.159Z,0
2017-05-06T02:26:19.529Z,0
2017-05-06T02:27:19.217Z,0
2017-05-06T02:28:19.565Z,0
2017-05-06T02:29:19.583Z,0
2017-05-06T02:30:19.305Z,0
2017-05-06T02:31:19.637Z,0
2017-05-06T02:32:19.348Z,0
2017-05-06T02:33:19.690Z,0
2017-05-06T02:34:19.403Z,0
2017-05-06T02:35:19.755Z,0
2017-05-06T02:36:19.145Z,0
2017-05-06T02:37:19.489Z,0
2017-05-06T02:38:19.829Z,0
2017-05-06T02:39:19.862Z,0
2017-05-06T02:40:19.886Z,0
2017-05-06T02:41:19.908Z,0
2017-05-06T02:42:19.933Z,0
2017-05-06T02:43:19.957Z,0
2017-05-06T02:44:19.670Z,0
2017-05-06T02:45:19.958Z,0
2017-05-06T02:46:19.732Z,0
2017-05-06T02:47:19.772Z,0
2017-05-06T02:48:19.149Z,0
2017-05-06T02:49:19.794Z,0
2017-05-06T02:50:20.081Z,0
2017-05-06T02:51:19.860Z,0
2017-05-06T02:52:20.197Z,0
2017-05-06T02:53:20.233Z,0
2017-05-06T02:54:19.622Z,0
2017-05-06T02:55:20.550Z,0
2017-05-06T02:56:19.999Z,0
2017-05-06T02:57:20.349Z,0
2017-05-06T02:58:20.053Z,0
2017-05-06T02:59:20.069Z,0
2017-05-06T03:00:20.042Z,0
2017-05-06T03:01:20.131Z,0
2017-05-06T03:02:20.485Z,0
2017-05-06T03:03:20.519Z,0
2017-05-06T03:04:20.201Z,0
2017-05-06T03:05:20.818Z,0
2017-05-06T03:06:20.591Z,0
2017-05-06T03:07:20.292Z,0
2017-05-06T03:08:20.640Z,0
2017-05-06T03:09:20.669Z,0
2017-05-06T03:10:20.949Z,0
2017-05-06T03:11:20.721Z,0
2017-05-06T03:12:20.440Z,0
2017-05-06T03:13:20.767Z,0
2017-05-06T03:14:20.812Z,0
2017-05-06T03:15:20.754Z,0
2017-05-06T03:16:20.214Z,0
2017-05-06T03:17:20.571Z,0
2017-05-06T03:18:20.906Z,0
2017-05-06T03:19:20.616Z,0
2017-05-06T03:20:21.204Z,0
2017-05-06T03:21:20.674Z,0
2017-05-06T03:22:20.703Z,0
2017-05-06T03:23:21.040Z,0
2017-05-06T03:24:20.752Z,0
2017-05-06T03:25:21.032Z,0
2017-05-06T03:26:21.122Z,0
2017-05-06T03:27:20.825Z,0
2017-05-06T03:28:20.859Z,0
2017-05-06T03:29:20.252Z,0
2017-05-06T03:30:21.482Z,0
2017-05-06T03:31:20.946Z,0
2017-05-06T03:32:20.974Z,0
2017-05-06T03:33:20.999Z,0
2017-05-06T03:34:21.035Z,0
2017-05-06T03:35:21.295Z,0
2017-05-06T03:36:20.445Z,0
2017-05-06T03:37:21.422Z,0
2017-05-06T03:38:21.454Z,0
2017-05-06T03:39:21.144Z,0
2017-05-06T03:40:21.432Z,0
2017-05-06T03:41:20.913Z,4
2017-05-06T03:42:21.554Z,4
2017-05-06T03:43:21.267Z,0
2017-05-06T03:44:21.301Z,4
2017-05-06T03:45:21.885Z,4
2017-05-06T03:46:21.330Z,8
2017-05-06T03:47:21.378Z,4
2017-05-06T03:48:21.721Z,8
2017-05-06T03:49:21.112Z,8
2017-05-06T03:50:21.760Z,8
2017-05-06T03:51:21.477Z,12
2017-05-06T03:52:21.513Z,12
2017-05-06T03:53:21.863Z,16
2017-05-06T03:54:21.887Z,16
2017-05-06T03:55:21.587Z,16
2017-05-06T03:56:21.936Z,20
2017-05-06T03:57:21.649Z,20
2017-05-06T03:58:21.982Z,24
2017-05-06T03:59:22.023Z,28
2017-05-06T04:00:22.035Z,32
2017-05-06T04:01:22.072Z,32
2017-05-06T04:02:21.781Z,36
2017-05-06T04:03:21.502Z,44
2017-05-06T04:04:21.834Z,44
2017-05-06T04:05:21.860Z,48
2017-05-06T04:06:22.204Z,52
2017-05-06T04:07:21.593Z,56
2017-05-06T04:08:21.617Z,60
2017-05-06T04:09:21.338Z,60
2017-05-06T04:10:21.701Z,68
2017-05-06T04:11:22.304Z,72
2017-05-06T04:12:22.012Z,76
2017-05-06T04:13:22.043Z,84
2017-05-06T04:14:22.394Z,88
2017-05-06T04:15:21.780Z,92
2017-05-06T04:16:21.808Z,100
2017-05-06T04:17:22.142Z,100
2017-05-06T04:18:22.167Z,108
2017-05-06T04:19:21.894Z,112
2017-05-06T04:20:22.226Z,124
2017-05-06T04:21:22.563Z,128
2017-05-06T04:22:22.609Z,132
2017-05-06T04:23:22.309Z,140
2017-05-06T04:24:22.336Z,144
2017-05-06T04:25:22.360Z,156
2017-05-06T04:26:22.952Z,160
2017-05-06T04:27:22.728Z,168
2017-05-06T04:28:22.753Z,176
2017-05-06T04:29:22.783Z,184
2017-05-06T04:30:22.801Z,192
2017-05-06T04:31:23.099Z,196
2017-05-06T04:32:22.864Z,204
2017-05-06T04:33:22.887Z,208
2017-05-06T04:34:22.605Z,212
2017-05-06T04:35:22.630Z,220
2017-05-06T04:36:22.907Z,224
2017-05-06T04:37:22.677Z,228
2017-05-06T04:38:22.708Z,236
2017-05-06T04:39:23.053Z,240
2017-05-06T04:40:23.079Z,248
2017-05-06T04:41:23.044Z,252
2017-05-06T04:42:23.127Z,256
2017-05-06T04:43:22.840Z,260
2017-05-06T04:44:22.560Z,264
2017-05-06T04:45:23.209Z,268
2017-05-06T04:46:23.173Z,272
2017-05-06T04:47:23.255Z,272
2017-05-06T04:48:22.968Z,280
2017-05-06T04:49:23.010Z,284
2017-05-06T04:50:22.405Z,292
2017-05-06T04:51:23.614Z,296
2017-05-06T04:52:23.396Z,312
2017-05-06T04:53:23.125Z,320
2017-05-06T04:54:23.134Z,336
2017-05-06T04:55:22.850Z,352
2017-05-06T04:56:23.775Z,368
2017-05-06T04:57:22.907Z,376
2017-05-06T04:58:23.555Z,392
2017-05-06T04:59:23.277Z,408
2017-05-06T05:00:23.303Z,416
2017-05-06T05:01:23.894Z,428
2017-05-06T05:02:23.667Z,440
2017-05-06T05:03:23.695Z,444
2017-05-06T05:04:23.398Z,448
2017-05-06T05:05:23.777Z,448
2017-05-06T05:06:23.711Z,448
2017-05-06T05:07:23.184Z,452
2017-05-06T05:08:23.834Z,460
2017-05-06T05:09:23.532Z,460
2017-05-06T05:10:23.573Z,468
2017-05-06T05:11:23.846Z,480
2017-05-06T05:12:23.323Z,492
2017-05-06T05:13:23.966Z,504
2017-05-06T05:14:23.988Z,504
2017-05-06T05:15:23.714Z,504
2017-05-06T05:16:24.297Z,512
2017-05-06T05:17:24.070Z,508
2017-05-06T05:18:23.786Z,504
2017-05-06T05:19:23.500Z,524
2017-05-06T05:20:23.841Z,536
2017-05-06T05:21:24.121Z,532
2017-05-06T05:22:24.205Z,524
2017-05-06T05:23:24.243Z,520
2017-05-06T05:24:23.325Z,516
2017-05-06T05:25:24.016Z,504
2017-05-06T05:26:24.568Z,492
2017-05-06T05:27:24.026Z,484
2017-05-06T05:28:23.757Z,476
2017-05-06T05:29:24.088Z,476
2017-05-06T05:30:24.432Z,464
2017-05-06T05:31:24.687Z,468
2017-05-06T05:32:24.166Z,464
2017-05-06T05:33:23.878Z,460
2017-05-06T05:34:24.531Z,472
2017-05-06T05:35:24.552Z,472
2017-05-06T05:36:24.207Z,480
2017-05-06T05:37:23.981Z,484
2017-05-06T05:38:24.634Z,488
2017-05-06T05:39:24.362Z,496
2017-05-06T05:40:24.385Z,496
2017-05-06T05:41:24.652Z,504
2017-05-06T05:42:24.437Z,536
2017-05-06T05:43:24.149Z,560
2017-05-06T05:44:24.799Z,584
2017-05-06T05:45:24.824Z,612
2017-05-06T05:46:24.792Z,644
2017-05-06T05:47:24.877Z,676
2017-05-06T05:48:24.903Z,712
2017-05-06T05:49:24.626Z,724
2017-05-06T05:50:24.648Z,764
2017-05-06T05:51:25.245Z,784
2017-05-06T05:52:24.713Z,800
2017-05-06T05:53:24.730Z,844
2017-05-06T05:54:24.754Z,868
2017-05-06T05:55:25.094Z,884
2017-05-06T05:56:24.824Z,924
2017-05-06T05:57:25.158Z,960
2017-05-06T05:58:25.186Z,956
2017-05-06T05:59:24.898Z,988
2017-05-06T06:00:25.241Z,1008
2017-05-06T06:01:25.269Z,1096
2017-05-06T06:02:25.303Z,1196
2017-05-06T06:03:25.008Z,1224
2017-05-06T06:04:25.337Z,1264
2017-05-06T06:05:25.367Z,1328
2017-05-06T06:06:25.402Z,1352
2017-05-06T06:07:25.057Z,1376
2017-05-06T06:08:25.142Z,1372
2017-05-06T06:09:25.487Z,1288
2017-05-06T06:10:25.507Z,1240
2017-05-06T06:11:25.232Z,1212
2017-05-06T06:12:25.503Z,1188
2017-05-06T06:13:25.277Z,1128
2017-05-06T06:14:24.997Z,1084
2017-05-06T06:15:25.338Z,1056
2017-05-06T06:16:25.675Z,1036
2017-05-06T06:17:25.664Z,1028
2017-05-06T06:18:25.417Z,1008
2017-05-06T06:19:25.443Z,980
2017-05-06T06:20:25.475Z,972
2017-05-06T06:21:25.811Z,984
2017-05-06T06:22:25.472Z,1020
2017-05-06T06:23:25.557Z,1076
2017-05-06T06:24:25.577Z,1164
2017-05-06T06:25:25.614Z,1276
2017-05-06T06:26:25.013Z,1364
2017-05-06T06:27:25.611Z,1484
2017-05-06T06:28:25.697Z,1592
2017-05-06T06:29:25.718Z,1684
2017-05-06T06:30:25.739Z,1732
2017-05-06T06:31:25.774Z,1776
2017-05-06T06:32:26.053Z,1792
2017-05-06T06:33:26.146Z,1788
2017-05-06T06:34:26.168Z,1756
2017-05-06T06:35:25.887Z,1700
2017-05-06T06:36:25.912Z,1644
2017-05-06T06:37:26.189Z,1580
2017-05-06T06:38:25.972Z,1520
2017-05-06T06:39:26.306Z,1476
2017-05-06T06:40:26.334Z,1436
2017-05-06T06:41:26.363Z,1376
2017-05-06T06:42:26.659Z,1336
2017-05-06T06:43:26.411Z,1332
2017-05-06T06:44:26.448Z,1300
2017-05-06T06:45:26.475Z,1324
2017-05-06T06:46:26.195Z,1400
2017-05-06T06:47:26.780Z,1472
2017-05-06T06:48:26.565Z,1580
2017-05-06T06:49:26.593Z,1724
2017-05-06T06:50:25.995Z,1880
2017-05-06T06:51:26.639Z,2012
2017-05-06T06:52:26.919Z,2120
2017-05-06T06:53:26.695Z,2172
2017-05-06T06:54:26.721Z,2200
2017-05-06T06:55:26.752Z,2168
2017-05-06T06:56:26.471Z,2156
2017-05-06T06:57:27.054Z,2192
2017-05-06T06:58:26.833Z,2228
2017-05-06T06:59:26.865Z,2240
2017-05-06T07:00:26.568Z,2228
2017-05-06T07:01:26.605Z,2200
2017-05-06T07:02:26.879Z,2160
2017-05-06T07:03:26.665Z,2132
2017-05-06T07:04:26.693Z,2152
2017-05-06T07:05:26.406Z,2172
2017-05-06T07:06:27.050Z,2220
2017-05-06T07:07:27.058Z,2260
2017-05-06T07:08:27.104Z,2276
2017-05-06T07:09:26.821Z,2268
2017-05-06T07:10:27.168Z,2240
2017-05-06T07:11:27.200Z,2208
2017-05-06T07:12:27.469Z,2200
2017-05-06T07:13:26.629Z,2212
2017-05-06T07:14:27.280Z,2276
2017-05-06T07:15:27.306Z,2336
2017-05-06T07:16:27.354Z,2384
2017-05-06T07:17:27.611Z,2432
2017-05-06T07:18:27.431Z,2444
2017-05-06T07:19:27.420Z,2460
2017-05-06T07:20:27.442Z,2464
2017-05-06T07:21:27.158Z,2468
2017-05-06T07:22:27.757Z,2480
2017-05-06T07:23:27.531Z,2472
2017-05-06T07:24:27.589Z,2444
2017-05-06T07:25:27.582Z,2404
2017-05-06T07:26:27.303Z,2344
2017-05-06T07:27:27.902Z,2272
2017-05-06T07:28:27.359Z,2196
2017-05-06T07:29:27.701Z,2124
2017-05-06T07:30:27.414Z,2036
2017-05-06T07:31:27.438Z,1960
2017-05-06T07:32:28.034Z,1912
2017-05-06T07:33:27.816Z,1888
2017-05-06T07:34:27.212Z,1860
2017-05-06T07:35:27.557Z,1808
2017-05-06T07:36:27.902Z,1760
2017-05-06T07:37:28.193Z,1712
2017-05-06T07:38:27.951Z,1680
2017-05-06T07:39:27.977Z,1688
2017-05-06T07:40:28.024Z,1724
2017-05-06T07:41:28.495Z,1776
2017-05-06T07:42:27.442Z,1816
2017-05-06T07:43:27.807Z,1848
2017-05-06T07:44:27.525Z,1896
2017-05-06T07:45:42.976Z,1972
2017-05-06T07:47:28.230Z,2128
2017-05-06T07:48:28.139Z,2188
2017-05-06T07:49:28.203Z,2236
2017-05-06T07:50:29.349Z,2272
2017-05-06T07:52:29.502Z,2384
2017-05-06T07:53:43.212Z,2476
2017-05-06T07:54:28.624Z,2536
2017-05-06T07:55:29.626Z,2572
2017-05-06T07:56:43.039Z,2644
2017-05-06T07:57:28.991Z,2668
2017-05-06T07:59:29.620Z,2696
2017-05-06T08:00:43.618Z,2700
2017-05-06T08:01:43.247Z,2708
2017-05-06T08:02:29.759Z,2700
2017-05-06T08:03:28.709Z,2656
2017-05-06T08:04:29.108Z,2608
2017-05-06T08:05:43.953Z,2572
2017-05-06T08:06:29.905Z,2556
2017-05-06T08:07:29.024Z,2564
2017-05-06T08:08:28.815Z,2588
2017-05-06T08:10:28.884Z,2688
2017-05-06T08:12:58.507Z,2908
2017-05-06T08:13:44.968Z,2992
2017-05-06T08:14:29.768Z,3068
2017-05-06T08:15:28.695Z,3148
2017-05-06T08:16:29.310Z,3188
2017-05-06T08:17:29.411Z,3208
2017-05-06T08:18:29.550Z,3212
2017-05-06T08:19:29.036Z,3228
2017-05-06T08:20:28.872Z,3240
2017-05-06T08:21:28.829Z,3240
2017-05-06T08:22:29.171Z,3260
2017-05-06T08:23:29.202Z,3272
2017-05-06T08:24:29.179Z,3288
2017-05-06T08:25:29.268Z,3304
2017-05-06T08:26:28.977Z,3332
2017-05-06T08:27:29.030Z,3376
2017-05-06T08:28:29.035Z,3412
2017-05-06T08:29:29.316Z,3456
2017-05-06T08:30:28.780Z,3500
2017-05-06T08:31:29.439Z,3548
2017-05-06T08:32:29.470Z,3600
2017-05-06T08:33:29.175Z,3692
2017-05-06T08:34:29.455Z,3776
2017-05-06T08:35:28.609Z,3820
2017-05-06T08:36:29.565Z,3832
2017-05-06T08:37:29.290Z,3788
2017-05-06T08:38:29.630Z,3668
2017-05-06T08:39:29.928Z,3528
2017-05-06T08:40:29.680Z,3420
2017-05-06T08:41:29.710Z,3316
2017-05-06T08:42:29.432Z,3252
2017-05-06T08:43:29.455Z,3200
2017-05-06T08:44:30.048Z,3160
2017-05-06T08:45:29.819Z,3100
2017-05-06T08:46:29.852Z,3072
2017-05-06T08:47:29.573Z,3100
2017-05-06T08:48:29.593Z,3172
2017-05-06T08:49:30.195Z,3292
2017-05-06T08:50:29.977Z,3424
2017-05-06T08:51:29.997Z,3560
2017-05-06T08:52:29.393Z,3664
2017-05-06T08:53:30.048Z,3752
2017-05-06T08:54:30.007Z,3808
2017-05-06T08:55:30.109Z,3848
2017-05-06T08:56:30.141Z,3916
2017-05-06T08:57:30.172Z,3964
2017-05-06T08:58:29.885Z,3968
2017-05-06T08:59:30.467Z,3976
2017-05-06T09:00:30.260Z,3996
2017-05-06T09:01:30.297Z,3992
2017-05-06T09:02:30.317Z,3964
2017-05-06T09:03:30.337Z,3924
2017-05-06T09:04:30.299Z,3908
2017-05-06T09:05:30.394Z,3904
2017-05-06T09:06:30.113Z,3860
2017-05-06T09:07:30.445Z,3800
2017-05-06T09:08:30.477Z,3748
2017-05-06T09:09:30.754Z,3716
2017-05-06T09:10:30.534Z,3704
2017-05-06T09:11:30.249Z,3644
2017-05-06T09:12:29.994Z,3536
2017-05-06T09:13:30.610Z,3348
2017-05-06T09:14:30.907Z,3164
2017-05-06T09:15:30.363Z,2976
2017-05-06T09:16:30.088Z,2780
2017-05-06T09:17:30.106Z,2620
2017-05-06T09:18:30.757Z,2504
2017-05-06T09:19:30.417Z,2448
2017-05-06T09:20:30.815Z,2452
2017-05-06T09:21:30.836Z,2476
2017-05-06T09:22:30.873Z,2512
2017-05-06T09:23:30.273Z,2552
2017-05-06T09:24:31.182Z,2600
2017-05-06T09:25:30.955Z,2656
2017-05-06T09:26:30.992Z,2724
2017-05-06T09:27:30.077Z,2804
2017-05-06T09:28:30.733Z,2876
2017-05-06T09:29:30.758Z,2948
2017-05-06T09:30:31.099Z,3012
2017-05-06T09:31:31.128Z,3076
2017-05-06T09:32:31.156Z,3160
2017-05-06T09:33:31.188Z,3244
2017-05-06T09:34:30.594Z,3344
2017-05-06T09:35:31.243Z,3460
2017-05-06T09:36:31.276Z,3616
2017-05-06T09:37:30.987Z,3812
2017-05-06T09:38:30.705Z,4032
2017-05-06T09:39:31.355Z,4268
2017-05-06T09:40:31.070Z,4468
2017-05-06T09:41:31.107Z,4556
2017-05-06T09:42:31.439Z,4568
2017-05-06T09:43:31.465Z,4512
2017-05-06T09:44:31.522Z,4412
2017-05-06T09:45:31.215Z,4340
2017-05-06T09:46:31.235Z,4196
2017-05-06T09:47:30.641Z,4132
2017-05-06T09:48:31.613Z,3996
2017-05-06T09:49:30.737Z,3716
2017-05-06T09:50:31.909Z,3424
2017-05-06T09:51:31.695Z,3232
2017-05-06T09:52:31.404Z,3136
2017-05-06T09:53:31.756Z,3080
2017-05-06T09:54:31.466Z,3028
2017-05-06T09:55:31.734Z,2964
2017-05-06T09:56:31.840Z,2904
2017-05-06T09:57:31.856Z,2848
2017-05-06T09:58:31.277Z,2804
2017-05-06T09:59:31.925Z,2788
2017-05-06T10:00:31.894Z,2828
2017-05-06T10:01:31.978Z,2872
2017-05-06T10:02:32.004Z,2888
2017-05-06T10:03:31.721Z,2804
2017-05-06T10:04:32.074Z,2628
2017-05-06T10:05:32.347Z,2400
2017-05-06T10:06:31.803Z,2180
2017-05-06T10:07:31.527Z,2032
2017-05-06T10:08:31.247Z,1924
2017-05-06T10:09:32.213Z,1864
2017-05-06T10:10:32.492Z,1868
2017-05-06T10:11:31.964Z,1900
2017-05-06T10:12:32.283Z,1980
2017-05-06T10:13:32.004Z,2124
2017-05-06T10:14:32.037Z,2300
2017-05-06T10:15:32.318Z,2492
2017-05-06T10:16:32.405Z,2664
2017-05-06T10:17:32.442Z,2844
2017-05-06T10:18:32.153Z,3016
2017-05-06T10:19:32.182Z,3168
2017-05-06T10:20:32.462Z,3328
2017-05-06T10:21:32.231Z,3476
2017-05-06T10:22:32.273Z,3612
2017-05-06T10:23:32.295Z,3768
2017-05-06T10:24:32.633Z,3908
2017-05-06T10:25:32.609Z,4012
2017-05-06T10:26:32.691Z,4160
2017-05-06T10:27:32.408Z,4388
2017-05-06T10:28:32.748Z,4684
2017-05-06T10:29:32.465Z,4880
2017-05-06T10:30:33.057Z,5020
2017-05-06T10:31:32.507Z,5064
2017-05-06T10:32:32.931Z,5040
2017-05-06T10:33:32.883Z,5036
2017-05-06T10:34:32.320Z,5056
2017-05-06T10:35:32.889Z,5200
2017-05-06T10:36:32.667Z,5396
2017-05-06T10:37:33.002Z,5484
2017-05-06T10:38:32.720Z,5564
2017-05-06T10:39:33.061Z,5688
2017-05-06T10:40:33.333Z,5688
2017-05-06T10:41:32.814Z,5644
2017-05-06T10:42:33.199Z,5620
2017-05-06T10:43:33.176Z,5644
2017-05-06T10:44:33.205Z,5768
2017-05-06T10:45:33.166Z,5764
2017-05-06T10:46:33.262Z,5876
2017-05-06T10:47:33.299Z,5848
2017-05-06T10:48:32.724Z,5720
2017-05-06T10:49:33.029Z,5600
2017-05-06T10:50:33.625Z,5376
2017-05-06T10:51:33.402Z,5304
2017-05-06T10:52:33.434Z,5216
2017-05-06T10:53:33.456Z,5168
2017-05-06T10:54:33.176Z,4912
2017-05-06T10:55:33.769Z,4788
2017-05-06T10:56:33.547Z,4584
2017-05-06T10:57:33.571Z,4492
2017-05-06T10:58:33.596Z,4320
2017-05-06T10:59:33.321Z,4264
2017-05-06T11:00:33.600Z,4316
2017-05-06T11:01:33.066Z,4564
2017-05-06T11:02:33.728Z,4812
2017-05-06T11:03:33.432Z,4932
2017-05-06T11:04:33.763Z,5204
2017-05-06T11:05:33.744Z,5324
2017-05-06T11:06:33.830Z,5416
2017-05-06T11:07:33.867Z,5556
2017-05-06T11:08:33.580Z,5296
2017-05-06T11:09:33.920Z,5084
2017-05-06T11:10:33.886Z,4872
2017-05-06T11:11:33.977Z,4588
2017-05-06T11:12:34.007Z,4292
2017-05-06T11:13:33.412Z,4096
2017-05-06T11:14:34.064Z,4028
2017-05-06T11:15:34.345Z,3972
2017-05-06T11:16:33.503Z,3948
2017-05-06T11:17:33.843Z,3820
2017-05-06T11:18:34.180Z,3608
2017-05-06T11:19:34.202Z,3496
2017-05-06T11:20:33.924Z,3360
2017-05-06T11:21:34.267Z,3344
2017-05-06T11:22:33.671Z,3460
2017-05-06T11:23:34.316Z,3572
2017-05-06T11:24:34.028Z,3760
2017-05-06T11:25:34.372Z,3876
2017-05-06T11:26:34.433Z,3980
2017-05-06T11:27:34.459Z,3920
2017-05-06T11:28:34.477Z,3712
2017-05-06T11:29:34.503Z,3616
2017-05-06T11:30:34.521Z,3648
2017-05-06T11:31:34.550Z,3752
2017-05-06T11:32:33.954Z,3728
2017-05-06T11:33:33.990Z,3600
2017-05-06T11:34:34.648Z,3492
2017-05-06T11:35:34.354Z,3348
2017-05-06T11:36:34.630Z,3116
2017-05-06T11:37:34.722Z,3008
2017-05-06T11:38:34.128Z,3100
2017-05-06T11:39:34.471Z,3132
2017-05-06T11:40:34.497Z,3292
2017-05-06T11:41:34.469Z,3424
2017-05-06T11:42:34.863Z,3456
2017-05-06T11:43:34.899Z,3572
2017-05-06T11:44:34.616Z,3596
2017-05-06T11:45:34.957Z,3620
2017-05-06T11:46:34.609Z,3704
2017-05-06T11:47:34.386Z,3732
2017-05-06T11:48:35.043Z,3664
2017-05-06T11:49:35.072Z,3604
2017-05-06T11:50:35.084Z,3440
2017-05-06T11:51:35.381Z,3320
2017-05-06T11:52:34.838Z,3132
2017-05-06T11:53:34.871Z,2896
2017-05-06T11:54:35.206Z,2712
2017-05-06T11:55:34.924Z,2584
2017-05-06T11:56:35.206Z,2588
2017-05-06T11:57:35.302Z,2732
2017-05-06T11:58:35.008Z,2900
2017-05-06T11:59:34.732Z,3068
2017-05-06T12:00:35.068Z,3224
2017-05-06T12:01:35.345Z,3340
2017-05-06T12:02:34.809Z,3364
2017-05-06T12:03:35.151Z,3364
2017-05-06T12:04:35.486Z,3304
2017-05-06T12:05:35.531Z,3244
2017-05-06T12:06:35.808Z,3224
2017-05-06T12:07:35.274Z,3244
2017-05-06T12:08:35.308Z,3228
2017-05-06T12:09:35.627Z,3236
2017-05-06T12:10:35.351Z,3216
2017-05-06T12:11:35.637Z,3160
2017-05-06T12:12:35.417Z,3068
2017-05-06T12:13:35.441Z,2944
2017-05-06T12:14:35.783Z,2844
2017-05-06T12:15:35.809Z,2732
2017-05-06T12:16:35.780Z,2608
2017-05-06T12:17:35.241Z,2540
2017-05-06T12:18:35.903Z,2512
2017-05-06T12:19:35.919Z,2476
2017-05-06T12:20:35.643Z,2392
2017-05-06T12:21:36.225Z,2284
2017-05-06T12:22:35.704Z,2216
2017-05-06T12:23:35.726Z,2164
2017-05-06T12:24:36.062Z,2104
2017-05-06T12:25:36.091Z,2020
2017-05-06T12:26:36.372Z,1920
2017-05-06T12:27:36.161Z,1792
2017-05-06T12:28:35.881Z,1660
2017-05-06T12:29:36.211Z,1556
2017-05-06T12:30:36.233Z,1488
2017-05-06T12:31:36.510Z,1436
2017-05-06T12:32:36.316Z,1428
2017-05-06T12:33:36.323Z,1476
2017-05-06T12:34:36.046Z,1552
2017-05-06T12:35:36.366Z,1608
2017-05-06T12:36:36.349Z,1608
2017-05-06T12:37:36.433Z,1556
2017-05-06T12:38:36.465Z,1496
2017-05-06T12:39:36.493Z,1460
2017-05-06T12:40:36.519Z,1432
2017-05-06T12:41:36.491Z,1400
2017-05-06T12:42:36.582Z,1388
2017-05-06T12:43:36.289Z,1380
2017-05-06T12:44:36.634Z,1348
2017-05-06T12:45:36.663Z,1340
2017-05-06T12:46:36.631Z,1316
2017-05-06T12:47:36.720Z,1252
2017-05-06T12:48:36.750Z,1192
2017-05-06T12:49:36.775Z,1164
2017-05-06T12:50:36.807Z,1212
2017-05-06T12:51:36.772Z,1228
2017-05-06T12:52:36.241Z,1204
2017-05-06T12:53:36.889Z,1196
2017-05-06T12:54:36.595Z,1184
2017-05-06T12:55:36.638Z,1188
2017-05-06T12:56:37.232Z,1200
2017-05-06T12:57:36.692Z,1212
2017-05-06T12:58:37.038Z,1244
2017-05-06T12:59:36.741Z,1268
2017-05-06T13:00:37.086Z,1308
2017-05-06T13:01:37.363Z,1368
2017-05-06T13:02:36.832Z,1400
2017-05-06T13:03:36.545Z,1376
2017-05-06T13:04:37.195Z,1348
2017-05-06T13:05:36.919Z,1308
2017-05-06T13:06:37.512Z,1272
2017-05-06T13:07:37.295Z,1248
2017-05-06T13:08:37.008Z,1232
2017-05-06T13:09:36.951Z,1224
2017-05-06T13:10:37.063Z,1236
2017-05-06T13:11:37.643Z,1260
2017-05-06T13:12:37.428Z,1276
2017-05-06T13:13:37.462Z,1260
2017-05-06T13:14:37.626Z,1248
2017-05-06T13:15:37.194Z,1252
2017-05-06T13:16:37.485Z,1268
2017-05-06T13:17:37.576Z,1340
2017-05-06T13:18:37.603Z,1372
2017-05-06T13:19:37.307Z,1324
2017-05-06T13:20:37.654Z,1272
2017-05-06T13:21:37.931Z,1256
2017-05-06T13:22:37.711Z,1300
2017-05-06T13:23:37.427Z,1336
2017-05-06T13:24:37.775Z,1380
2017-05-06T13:25:37.799Z,1440
2017-05-06T13:26:38.076Z,1476
2017-05-06T13:27:37.844Z,1520
2017-05-06T13:28:37.564Z,1620
2017-05-06T13:29:37.910Z,1700
2017-05-06T13:30:37.626Z,1748
2017-05-06T13:31:37.972Z,1736
2017-05-06T13:32:37.368Z,1696
2017-05-06T13:33:37.705Z,1656
2017-05-06T13:34:38.058Z,1680
2017-05-06T13:35:38.082Z,1776
2017-05-06T13:36:38.111Z,1840
2017-05-06T13:37:38.136Z,1816
2017-05-06T13:38:37.853Z,1736
2017-05-06T13:39:38.198Z,1652
2017-05-06T13:40:37.911Z,1584
2017-05-06T13:41:37.618Z,1580
2017-05-06T13:42:37.964Z,1640
2017-05-06T13:43:38.294Z,1728
2017-05-06T13:44:37.413Z,1700
2017-05-06T13:45:38.055Z,1592
2017-05-06T13:46:38.392Z,1484
2017-05-06T13:47:38.420Z,1444
2017-05-06T13:48:38.132Z,1432
2017-05-06T13:49:38.465Z,1540
2017-05-06T13:50:38.190Z,1712
2017-05-06T13:51:38.215Z,1856